Triangle Lake, Oregon
Current Conditions -  °F | °C
As of 4:54 AM on Saturday 25 Oct 2014 (Local Time) from KEUG Reporting Station
Overcast Overcast  
Wind Chill: 52°   Ceiling: 4700
Heat Index: 52°   Visibility: 10mi
Dew Point: 49°   Wind: 3mph
Humidity: 89%   Direction: 120°ESE
Pressure: 29.58"   Gusts: NA
Location:  44.1962°N, 123.553°W
Report Text: KEUG 251154Z AUTO 12003KT 10SM FEW026 SCT039 OVC047 11/09 A2958 RMK AO2 SLP017 70029 T01110094 10111 20106 55012
Loading
Personal Weather Stations






























Interactive Weather Map
Tropical Storm Tracking
New forecast layout! Learn more

10-Day Weather Forecast

Advertisements
Track Severe Weather on mobile